CZA weather

Chichen Itza International Airport
Chichen Itza, Yucatan, Mexico

Public forecast

Using degrees Celsius for public forecast. Weather courtesy of forecast.io.

METAR (pilot weather report)

Retrieved 2017/10/21 13:11 UTC (0 seconds ago):

MMCT 211311Z RTD 00000KT 5SM BKN040 25/23 A2995 RMK 8/500 HZY MSGTX MMMD

TAF (pilot weather forecast)

Forecast is more than 12 hours old.

Closest forecast is Licenciado Manuel Crescencio Rejon Int Airport, 70.3 nm (130.2 km) WNW. Retrieved 2017/10/19 00:22 UTC (3 days ago):

TAF MMMD 192316Z 2000/2106 12005KT 6SM HZ VC TS BKN030CB BKN070 TX33/2020Z TN23/2013Z TEMPO 2000/2004 3SM TSRA OVC020CB FM200600 00000KT P6SM BKN015 FM202000 12010KT P6SM BKN020 TEMPO 2021/2101 4SM TSRA BKN020CB